Time;durP1;ratioP1;P1;durP2;ratioP2;P2;SDS_P1;SDS_P2;PMS_P1;PMS_P2;Temp;Humidity;BMP_temperature;BMP_pressure;BME280_temperature;BME280_humidity;BME280_pressure;Samples;Min_cycle;Max_cycle;Signal;HPM_P1;HPM_P2
2021/12/04 00:02:04;;;;;;;13.93;12.18;;;15.20;72.20;;;;;;4223662;28;20043;-66
2021/12/04 00:04:29;;;;;;;13.38;11.68;;;15.20;72.30;;;;;;4225127;28;20112;-67
2021/12/04 00:06:52;;;;;;;14.38;12.32;;;15.20;72.30;;;;;;4221906;28;20138;-67
2021/12/04 00:09:15;;;;;;;14.35;11.68;;;15.20;72.40;;;;;;4208641;28;20040;-68
2021/12/04 00:11:40;;;;;;;18.30;13.15;;;15.20;72.50;;;;;;4209091;28;20043;-67
2021/12/04 00:14:02;;;;;;;14.18;12.48;;;15.20;72.60;;;;;;4208507;28;20403;-66
2021/12/04 00:16:25;;;;;;;14.95;13.35;;;15.20;72.70;;;;;;4208935;28;20047;-67
2021/12/04 00:18:48;;;;;;;16.45;13.32;;;15.30;72.50;;;;;;4215220;27;20047;-67
2021/12/04 00:21:09;;;;;;;17.23;13.52;;;15.40;72.10;;;;;;4242381;27;20051;-67
2021/12/04 00:23:31;;;;;;;14.73;13.02;;;15.50;71.70;;;;;;4242340;27;20062;-67
2021/12/04 00:25:53;;;;;;;18.05;13.45;;;15.50;71.20;;;;;;4227431;27;20063;-67
2021/12/04 00:28:15;;;;;;;16.67;13.82;;;15.60;71.00;;;;;;4224790;28;20047;-67
2021/12/04 00:30:38;;;;;;;17.50;14.13;;;15.60;70.70;;;;;;4225456;28;20052;-67
2021/12/04 00:33:03;;;;;;;18.25;14.57;;;15.60;70.70;;;;;;4222178;28;20051;-67
2021/12/04 00:35:36;;;;;;;17.33;14.15;;;15.60;70.60;;;;;;4209690;28;20048;-67
2021/12/04 00:49:05;;;;;;;18.67;13.85;;;15.50;71.10;;;;;;4207480;27;20074;-66
2021/12/04 00:49:11;;;;;;;20.38;16.58;;;15.50;71.40;;;;;;4225225;27;20036;-66
2021/12/04 00:51:34;;;;;;;21.60;15.52;;;15.40;71.50;;;;;;4225278;27;20047;-66
2021/12/04 00:53:56;;;;;;;20.13;15.10;;;15.40;71.70;;;;;;4225002;27;20398;-67
2021/12/04 00:56:18;;;;;;;22.00;15.15;;;15.30;71.80;;;;;;4224094;27;20063;-67
2021/12/04 00:58:40;;;;;;;22.80;17.50;;;15.30;72.00;;;;;;4208266;27;20055;-67
2021/12/04 01:01:03;;;;;;;20.17;15.90;;;15.30;72.00;;;;;;4208315;27;20132;-67
2021/12/04 01:03:26;;;;;;;20.75;15.68;;;15.30;72.20;;;;;;4208126;27;20127;-67
2021/12/04 01:05:49;;;;;;;19.80;16.05;;;15.40;72.20;;;;;;4208532;27;20048;-67
2021/12/04 01:08:11;;;;;;;21.88;16.95;;;15.50;71.90;;;;;;4208437;27;20052;-68
2021/12/04 01:10:35;;;;;;;19.73;14.73;;;15.50;71.50;;;;;;4209253;27;20482;-67
2021/12/04 01:13:00;;;;;;;20.85;14.43;;;15.60;71.30;;;;;;4207143;27;20052;-67
2021/12/04 01:15:22;;;;;;;20.20;15.32;;;15.60;71.30;;;;;;4209472;27;20048;-66
2021/12/04 01:17:44;;;;;;;16.95;13.10;;;15.60;71.20;;;;;;4211476;27;20117;-67
2021/12/04 01:20:07;;;;;;;22.88;16.55;;;15.60;71.10;;;;;;4211343;27;20075;-67
2021/12/04 01:22:33;;;;;;;21.08;15.60;;;15.60;71.00;;;;;;4211582;27;20047;-66
2021/12/04 01:24:56;;;;;;;20.77;14.73;;;15.60;71.00;;;;;;4211394;27;20056;-67
2021/12/04 01:27:18;;;;;;;21.23;15.13;;;15.60;71.00;;;;;;4227695;27;20063;-67
2021/12/04 01:29:40;;;;;;;20.13;15.63;;;15.50;71.30;;;;;;4228263;27;20044;-67
2021/12/04 01:32:02;;;;;;;20.48;15.60;;;15.50;71.50;;;;;;4228074;27;20132;-68
2021/12/04 01:34:24;;;;;;;21.73;15.70;;;15.50;71.50;;;;;;4228232;27;20842;-68
2021/12/04 01:36:46;;;;;;;20.95;14.38;;;15.60;71.60;;;;;;4218940;27;20048;-68
2021/12/04 01:39:11;;;;;;;20.38;14.80;;;15.60;71.40;;;;;;4209658;27;20427;-68
2021/12/04 01:41:34;;;;;;;18.92;14.32;;;15.60;71.10;;;;;;4212138;28;20121;-69
2021/12/04 01:43:59;;;;;;;19.95;14.52;;;15.60;70.90;;;;;;4226466;28;20043;-68
2021/12/04 01:46:21;;;;;;;19.33;14.20;;;15.60;70.80;;;;;;4226906;27;20081;-68
2021/12/04 01:48:43;;;;;;;21.58;14.45;;;15.60;70.90;;;;;;4221243;28;20510;-68
2021/12/04 01:51:05;;;;;;;17.85;13.70;;;15.60;71.10;;;;;;4210420;28;20064;-68
2021/12/04 01:53:28;;;;;;;20.80;14.30;;;15.60;71.50;;;;;;4210937;28;20050;-68
2021/12/04 01:55:54;;;;;;;19.48;13.98;;;15.60;71.70;;;;;;4210558;28;20052;-68
2021/12/04 01:58:17;;;;;;;18.13;14.32;;;15.70;71.40;;;;;;4211817;28;20048;-61
2021/12/04 02:00:41;;;;;;;19.08;13.77;;;15.80;71.90;;;;;;4210930;28;20074;-62
2021/12/04 02:03:07;;;;;;;18.30;13.82;;;15.80;70.60;;;;;;4211922;28;20502;-61
2021/12/04 02:05:30;;;;;;;19.15;13.80;;;15.80;70.50;;;;;;4210409;28;20059;-62
2021/12/04 02:07:52;;;;;;;20.40;15.07;;;15.80;70.30;;;;;;4210546;28;20101;-61
2021/12/04 02:10:14;;;;;;;18.52;13.82;;;15.90;70.30;;;;;;4210207;28;20450;-61
2021/12/04 02:12:38;;;;;;;19.90;14.13;;;15.80;70.10;;;;;;4210464;28;20052;-61
2021/12/04 02:15:01;;;;;;;18.48;13.30;;;15.80;70.50;;;;;;4210637;28;20052;-62
2021/12/04 02:17:23;;;;;;;20.08;14.38;;;15.80;70.50;;;;;;4218831;27;20505;-61
2021/12/04 02:19:46;;;;;;;18.25;13.85;;;15.80;70.60;;;;;;4226038;27;20093;-63
2021/12/04 02:22:10;;;;;;;18.80;13.43;;;15.80;70.50;;;;;;4227300;27;20457;-62
2021/12/04 02:24:33;;;;;;;17.75;13.55;;;15.80;70.50;;;;;;4225483;27;20047;-61
2021/12/04 02:26:55;;;;;;;19.58;13.63;;;15.90;70.80;;;;;;4226958;27;20048;-62
2021/12/04 02:29:17;;;;;;;19.08;12.90;;;15.90;70.70;;;;;;4227211;27;20036;-63
2021/12/04 02:31:39;;;;;;;16.70;13.52;;;16.00;70.30;;;;;;4226710;27;20155;-62
2021/12/04 02:34:01;;;;;;;18.80;13.35;;;16.00;69.90;;;;;;4227721;27;20044;-62
2021/12/04 02:36:24;;;;;;;18.38;12.32;;;16.10;69.80;;;;;;4218354;28;20414;-62
2021/12/04 02:38:51;;;;;;;16.75;13.00;;;16.10;69.70;;;;;;4210139;28;20048;-61
2021/12/04 02:41:13;;;;;;;18.75;13.00;;;16.10;69.50;;;;;;4209854;28;20135;-62
2021/12/04 02:43:36;;;;;;;15.93;12.35;;;16.10;69.40;;;;;;4209904;28;20068;-62
2021/12/04 02:45:58;;;;;;;16.98;12.68;;;16.10;69.40;;;;;;4208750;28;20135;-62
2021/12/04 02:48:20;;;;;;;15.60;12.15;;;16.10;69.40;;;;;;4224581;28;20043;-62
2021/12/04 02:50:43;;;;;;;17.85;12.02;;;16.00;69.70;;;;;;4217103;28;20462;-62
2021/12/04 02:53:05;;;;;;;20.25;13.70;;;16.10;70.00;;;;;;4210015;28;20044;-61
2021/12/04 02:55:28;;;;;;;17.25;12.77;;;16.20;69.70;;;;;;4209606;28;20055;-62
2021/12/04 02:57:51;;;;;;;17.40;12.38;;;16.30;69.30;;;;;;4207955;28;20139;-63
2021/12/04 03:00:16;;;;;;;18.20;12.48;;;16.30;68.90;;;;;;4207718;28;20125;-62
2021/12/04 03:02:38;;;;;;;18.50;12.18;;;16.40;68.60;;;;;;4209594;28;20475;-62
2021/12/04 03:05:06;;;;;;;16.58;11.50;;;16.40;68.60;;;;;;4217333;28;20043;-62
2021/12/04 03:07:28;;;;;;;17.42;11.55;;;16.30;68.50;;;;;;4226408;28;20051;-63
2021/12/04 03:09:51;;;;;;;16.60;12.07;;;16.30;68.80;;;;;;4225747;27;20071;-62
2021/12/04 03:12:18;;;;;;;15.85;11.77;;;16.20;69.00;;;;;;4216540;27;20133;-62
2021/12/04 03:14:40;;;;;;;16.17;11.23;;;16.20;69.00;;;;;;4209577;28;20052;-62
2021/12/04 03:17:03;;;;;;;16.27;10.77;;;16.20;69.10;;;;;;4209250;28;20470;-62
2021/12/04 03:19:25;;;;;;;15.63;11.55;;;16.20;69.10;;;;;;4209662;28;20056;-62
2021/12/04 03:21:47;;;;;;;16.88;12.60;;;16.10;69.20;;;;;;4209610;28;20510;-62
2021/12/04 03:24:12;;;;;;;17.85;12.55;;;16.10;69.10;;;;;;4209474;28;20059;-62
2021/12/04 03:26:36;;;;;;;16.70;11.27;;;16.10;69.20;;;;;;4219884;28;20077;-62
2021/12/04 03:29:03;;;;;;;17.27;12.18;;;16.00;69.40;;;;;;4226001;27;20086;-62
2021/12/04 03:31:40;;;;;;;16.58;11.70;;;15.90;69.60;;;;;;4225827;27;20052;-62
2021/12/04 03:42:01;;;;;;;13.40;10.80;;;15.90;70.90;;;;;;4210051;28;20085;-62
2021/12/04 03:44:24;;;;;;;13.88;10.68;;;16.00;70.50;;;;;;4209070;28;20058;-62
2021/12/04 03:46:48;;;;;;;13.85;11.35;;;16.00;70.10;;;;;;4209042;28;20048;-61
2021/12/04 03:49:10;;;;;;;15.05;10.98;;;16.00;70.00;;;;;;4208652;28;20093;-62
2021/12/04 03:51:32;;;;;;;13.77;10.70;;;16.00;69.90;;;;;;4208752;28;20488;-62
2021/12/04 03:53:55;;;;;;;14.55;10.07;;;16.10;69.80;;;;;;4208678;28;20055;-62
2021/12/04 03:56:22;;;;;;;12.02;9.63;;;16.10;69.70;;;;;;4208983;28;20445;-62
2021/12/04 03:58:44;;;;;;;15.82;10.43;;;16.10;69.80;;;;;;4208374;28;20547;-63
2021/12/04 04:01:08;;;;;;;13.23;10.27;;;16.00;69.70;;;;;;4208548;28;20511;-62
2021/12/04 04:03:30;;;;;;;12.48;9.52;;;15.90;69.60;;;;;;4209634;28;20131;-62
2021/12/04 04:05:52;;;;;;;14.15;10.20;;;15.90;70.00;;;;;;4208855;28;20060;-62
2021/12/04 04:08:15;;;;;;;13.55;10.20;;;15.80;70.30;;;;;;4208955;28;20044;-61
2021/12/04 04:10:38;;;;;;;13.43;11.07;;;15.80;70.60;;;;;;4208571;28;20070;-62
2021/12/04 04:13:00;;;;;;;14.88;11.55;;;15.80;70.90;;;;;;4208262;28;20419;-62
2021/12/04 04:15:22;;;;;;;15.07;11.38;;;15.80;71.00;;;;;;4208690;28;20047;-62
2021/12/04 04:17:46;;;;;;;14.27;10.10;;;15.90;71.10;;;;;;4208572;28;20437;-62
2021/12/04 04:20:10;;;;;;;15.27;10.52;;;16.00;70.80;;;;;;4208810;28;20055;-62
2021/12/04 04:22:32;;;;;;;12.30;9.85;;;16.10;70.30;;;;;;4208219;28;20391;-62
2021/12/04 04:24:54;;;;;;;12.13;10.15;;;16.10;69.90;;;;;;4212884;28;20047;-62
2021/12/04 04:27:16;;;;;;;11.93;10.38;;;16.20;69.90;;;;;;4225443;28;20052;-64
2021/12/04 04:29:38;;;;;;;12.32;10.27;;;16.30;69.60;;;;;;4225425;28;20058;-63
2021/12/04 04:32:01;;;;;;;11.40;9.48;;;16.40;69.10;;;;;;4225342;28;20483;-63
2021/12/04 04:34:28;;;;;;;12.63;9.73;;;16.50;68.70;;;;;;4225428;28;20047;-62
2021/12/04 04:37:08;;;;;;;11.80;10.15;;;16.50;68.40;;;;;;4225244;28;20150;-62
2021/12/04 05:11:37;;;;;;;12.93;8.73;;;16.40;68.70;;;;;;4222654;27;20525;-62
2021/12/04 05:14:02;;;;;;;26.65;9.68;;;16.30;68.90;;;;;;4222609;27;20436;-62
2021/12/04 05:16:30;;;;;;;12.68;8.88;;;16.20;69.20;;;;;;4235151;27;20123;-62
2021/12/04 05:18:55;;;;;;;12.40;8.77;;;16.30;69.60;;;;;;4239426;27;20406;-62
2021/12/04 05:21:18;;;;;;;12.90;9.10;;;16.40;69.30;;;;;;4239318;27;20048;-62
2021/12/04 05:23:44;;;;;;;11.85;8.68;;;16.50;68.70;;;;;;4239485;27;20058;-62
2021/12/04 05:26:09;;;;;;;11.73;8.80;;;16.60;68.30;;;;;;4239585;27;20071;-62
2021/12/04 05:28:32;;;;;;;11.65;8.73;;;16.60;68.00;;;;;;4239243;27;20061;-62
2021/12/04 05:30:55;;;;;;;10.07;8.05;;;16.60;68.10;;;;;;4225232;27;20056;-62
2021/12/04 05:33:17;;;;;;;9.20;8.05;;;16.60;68.00;;;;;;4222430;27;20436;-62
2021/12/04 05:35:39;;;;;;;11.15;8.40;;;16.60;68.20;;;;;;4222345;27;20104;-62
2021/12/04 05:38:02;;;;;;;9.52;7.68;;;16.50;68.10;;;;;;4223654;27;20138;-62
2021/12/04 05:40:24;;;;;;;10.00;7.90;;;16.50;68.10;;;;;;4221965;27;20073;-62
2021/12/04 05:42:47;;;;;;;11.15;8.43;;;16.40;68.40;;;;;;4222155;27;20051;-62
2021/12/04 05:45:17;;;;;;;9.95;8.00;;;16.40;68.10;;;;;;4222303;27;20097;-62
2021/12/04 05:47:45;;;;;;;11.20;8.30;;;16.30;68.50;;;;;;4222454;27;20044;-61
2021/12/04 05:50:19;;;;;;;10.00;7.55;;;16.30;68.80;;;;;;4230945;27;20474;-62
2021/12/04 05:52:51;;;;;;;11.65;8.18;;;16.30;68.70;;;;;;4231302;27;20048;-62
2021/12/04 05:55:16;;;;;;;9.43;7.75;;;16.20;68.90;;;;;;4210503;27;20048;-62
2021/12/04 05:57:38;;;;;;;9.60;7.05;;;16.20;69.20;;;;;;4210988;27;20131;-62
2021/12/04 06:00:01;;;;;;;12.80;8.27;;;16.20;69.70;;;;;;4210996;28;20050;-62
2021/12/04 06:02:25;;;;;;;8.52;6.72;;;16.20;69.60;;;;;;4210354;28;20444;-63
2021/12/04 06:04:48;;;;;;;10.73;7.82;;;16.20;69.50;;;;;;4210892;28;20036;-63
2021/12/04 06:07:10;;;;;;;8.00;7.18;;;16.20;69.40;;;;;;4210772;28;20406;-63
2021/12/04 06:09:32;;;;;;;10.98;7.38;;;16.20;69.40;;;;;;4221154;27;20044;-62
2021/12/04 06:11:57;;;;;;;8.55;6.95;;;16.30;69.60;;;;;;4210790;28;20109;-62
2021/12/04 06:14:19;;;;;;;7.88;7.07;;;16.30;69.40;;;;;;4210361;28;20055;-62
2021/12/04 06:16:41;;;;;;;8.00;7.18;;;16.50;69.00;;;;;;4220065;28;20547;-62
2021/12/04 06:19:10;;;;;;;8.75;7.00;;;16.60;68.60;;;;;;4227463;27;20097;-62
2021/12/04 06:24:13;;;;;;;10.83;7.03;;;16.60;67.80;;;;;;4216860;28;20135;-62
2021/12/04 06:26:37;;;;;;;8.43;7.10;;;16.60;67.90;;;;;;4227490;27;20401;-62
2021/12/04 06:29:00;;;;;;;8.20;6.75;;;16.60;68.80;;;;;;4225936;28;20058;-62
2021/12/04 06:31:22;;;;;;;9.88;7.57;;;16.50;68.10;;;;;;4227487;27;20047;-63
2021/12/04 06:33:44;;;;;;;10.77;7.80;;;16.50;68.50;;;;;;4227346;27;20051;-62
2021/12/04 06:36:07;;;;;;;8.32;6.88;;;16.40;68.60;;;;;;4220353;27;20515;-62
2021/12/04 06:38:30;;;;;;;8.38;7.15;;;16.40;68.50;;;;;;4210153;28;20052;-62
2021/12/04 06:40:52;;;;;;;9.80;7.35;;;16.40;68.50;;;;;;4211165;28;20496;-62
2021/12/04 06:43:17;;;;;;;9.15;7.18;;;16.30;69.00;;;;;;4209786;28;20555;-66
2021/12/04 06:45:44;;;;;;;10.15;6.30;;;16.30;69.20;;;;;;4210627;28;20048;-64
2021/12/04 06:48:10;;;;;;;9.63;7.25;;;16.30;69.30;;;;;;4210369;28;20080;-62
2021/12/04 06:50:39;;;;;;;9.60;7.28;;;16.30;69.40;;;;;;4217289;28;20043;-67
2021/12/04 06:53:07;;;;;;;11.50;7.40;;;16.30;69.50;;;;;;4227093;28;20048;-62
2021/12/04 06:55:38;;;;;;;9.18;7.88;;;16.20;69.40;;;;;;4226629;28;20055;-62
2021/12/04 06:58:00;;;;;;;8.98;7.22;;;16.20;69.80;;;;;;4212822;28;20048;-62
2021/12/04 07:00:23;;;;;;;9.13;7.78;;;16.20;69.70;;;;;;4209895;28;20101;-62
2021/12/04 07:02:45;;;;;;;9.05;7.07;;;16.30;69.30;;;;;;4209892;28;20503;-62
2021/12/04 07:05:08;;;;;;;8.90;7.00;;;16.40;68.90;;;;;;4221237;28;20138;-62
2021/12/04 07:07:30;;;;;;;10.15;7.13;;;16.40;68.40;;;;;;4226399;27;20040;-61
2021/12/04 07:09:52;;;;;;;9.25;7.53;;;16.40;68.30;;;;;;4226692;27;20075;-62
2021/12/04 07:12:15;;;;;;;9.10;7.60;;;16.40;68.50;;;;;;4226474;28;20452;-62
2021/12/04 07:14:38;;;;;;;13.05;8.45;;;16.30;68.40;;;;;;4209936;28;20101;-61
2021/12/04 07:17:02;;;;;;;11.18;7.35;;;16.30;68.50;;;;;;4209675;28;20060;-62
2021/12/04 07:19:24;;;;;;;9.68;7.43;;;16.30;68.80;;;;;;4224244;28;20047;-61
2021/12/04 07:21:46;;;;;;;12.65;8.20;;;16.30;68.80;;;;;;4226198;27;20051;-62
2021/12/04 07:24:10;;;;;;;11.10;7.47;;;16.30;68.60;;;;;;4226134;27;20044;-62
2021/12/04 07:26:32;;;;;;;11.57;7.28;;;16.40;68.40;;;;;;4226156;27;20051;-62
2021/12/04 07:28:56;;;;;;;11.88;7.82;;;16.30;68.20;;;;;;4226194;27;20048;-61
2021/12/04 07:31:18;;;;;;;10.52;7.75;;;16.40;68.20;;;;;;4224662;27;20040;-62
2021/12/04 07:33:40;;;;;;;12.85;7.72;;;16.40;68.20;;;;;;4212760;28;20118;-61
2021/12/04 07:36:03;;;;;;;12.30;8.10;;;16.30;68.20;;;;;;4209589;28;20135;-62
2021/12/04 07:38:25;;;;;;;11.20;7.43;;;16.30;68.40;;;;;;4209532;28;20059;-61
2021/12/04 07:40:48;;;;;;;14.77;8.38;;;16.20;68.80;;;;;;4208600;28;20151;-61
2021/12/04 07:43:10;;;;;;;12.32;8.38;;;16.20;69.60;;;;;;4209391;28;20048;-61
2021/12/04 07:45:34;;;;;;;11.55;8.27;;;16.20;69.70;;;;;;4209176;28;20396;-61
2021/12/04 07:47:56;;;;;;;11.10;7.63;;;16.30;69.90;;;;;;4228371;27;20047;-62
2021/12/04 07:50:18;;;;;;;11.25;7.43;;;16.40;69.80;;;;;;4225787;28;20139;-61
2021/12/04 07:52:40;;;;;;;10.70;7.35;;;16.50;69.50;;;;;;4226064;27;20505;-61
2021/12/04 07:55:03;;;;;;;9.80;7.65;;;16.60;68.80;;;;;;4226092;27;20406;-61
2021/12/04 07:57:26;;;;;;;10.32;7.82;;;16.60;68.10;;;;;;4225765;28;20043;-61
2021/12/04 07:59:48;;;;;;;9.10;7.10;;;16.70;68.20;;;;;;4217898;28;20143;-62
2021/12/04 08:02:12;;;;;;;11.20;7.90;;;16.60;68.40;;;;;;4222214;27;20371;-62
2021/12/04 08:04:34;;;;;;;11.02;7.60;;;16.60;67.50;;;;;;4225383;27;20088;-62
2021/12/04 08:06:57;;;;;;;9.18;7.28;;;16.50;67.80;;;;;;4214120;27;20067;-62
2021/12/04 08:09:19;;;;;;;11.25;7.70;;;16.50;68.20;;;;;;4211221;27;20040;-61
2021/12/04 08:11:41;;;;;;;9.82;7.60;;;16.50;68.40;;;;;;4197994;28;20503;-61
2021/12/04 08:14:03;;;;;;;12.48;7.65;;;16.50;68.10;;;;;;4192586;28;20040;-61
2021/12/04 08:16:25;;;;;;;8.32;6.53;;;16.50;68.00;;;;;;4196546;28;20044;-60
2021/12/04 08:18:48;;;;;;;9.25;7.72;;;16.40;67.80;;;;;;4208618;28;20047;-61
2021/12/04 08:21:10;;;;;;;8.80;7.30;;;16.40;67.80;;;;;;4209093;28;20051;-61
2021/12/04 08:23:32;;;;;;;9.73;7.38;;;16.40;68.20;;;;;;4218137;27;20048;-64
2021/12/04 08:25:56;;;;;;;10.77;8.05;;;16.40;68.20;;;;;;4218254;27;20491;-64
2021/12/04 08:28:18;;;;;;;10.77;8.35;;;16.40;68.10;;;;;;4208653;28;20076;-65
2021/12/04 08:30:40;;;;;;;9.82;8.15;;;16.50;69.00;;;;;;4209648;28;20067;-64
2021/12/04 08:33:03;;;;;;;11.07;8.32;;;16.40;67.80;;;;;;4225699;27;20483;-64
2021/12/04 08:35:31;;;;;;;10.90;8.70;;;16.40;68.00;;;;;;4213578;27;20055;-64
2021/12/04 08:37:54;;;;;;;11.88;8.43;;;16.40;68.90;;;;;;4211107;28;20484;-64
2021/12/04 08:40:17;;;;;;;11.20;7.93;;;16.40;68.40;;;;;;4221853;27;20098;-64
2021/12/04 08:42:40;;;;;;;9.45;7.50;;;16.40;68.20;;;;;;4225345;27;20055;-64
2021/12/04 08:45:02;;;;;;;12.07;7.47;;;16.50;67.80;;;;;;4225640;27;20051;-64
2021/12/04 08:47:25;;;;;;;8.32;7.50;;;16.50;67.60;;;;;;4224670;27;20043;-64
2021/12/04 08:49:47;;;;;;;13.45;7.93;;;16.50;67.60;;;;;;4221212;28;20085;-66
2021/12/04 08:52:11;;;;;;;9.85;7.65;;;16.50;67.50;;;;;;4219632;28;20044;-64
2021/12/04 08:54:35;;;;;;;9.07;6.70;;;16.40;67.40;;;;;;4225541;28;20079;-64
2021/12/04 08:56:57;;;;;;;8.40;6.40;;;16.40;67.50;;;;;;4210295;28;20193;-64
2021/12/04 08:59:20;;;;;;;7.95;6.68;;;16.30;67.90;;;;;;4210179;28;20422;-64
2021/12/04 09:01:45;;;;;;;6.15;5.45;;;16.20;67.90;;;;;;4208757;28;20075;-64
2021/12/04 09:04:10;;;;;;;7.90;5.80;;;16.20;68.20;;;;;;4208489;28;20048;-65
2021/12/04 09:06:32;;;;;;;6.53;5.80;;;16.10;68.40;;;;;;4208407;28;20127;-65
2021/12/04 09:08:56;;;;;;;8.20;6.07;;;16.00;68.70;;;;;;4208723;28;20479;-65
2021/12/04 09:11:22;;;;;;;5.55;4.68;;;15.90;68.90;;;;;;4219175;28;20082;-64
2021/12/04 09:13:46;;;;;;;6.22;5.40;;;15.90;69.20;;;;;;4217631;28;20054;-65
2021/12/04 09:16:10;;;;;;;5.95;5.30;;;15.80;69.20;;;;;;4213507;28;20051;-61
2021/12/04 09:18:32;;;;;;;6.18;5.57;;;15.70;69.50;;;;;;4208010;28;20052;-60
2021/12/04 09:20:56;;;;;;;6.50;5.90;;;15.60;69.90;;;;;;4220571;28;20039;-60
2021/12/04 09:23:20;;;;;;;5.65;5.18;;;15.60;69.90;;;;;;4217742;28;20044;-60
2021/12/04 09:25:47;;;;;;;5.60;5.10;;;15.60;70.10;;;;;;4208171;28;20132;-61
2021/12/04 09:28:17;;;;;;;5.43;5.03;;;15.60;70.40;;;;;;4226856;27;20055;-61
2021/12/04 09:31:10;;;;;;;5.80;5.32;;;15.60;70.50;;;;;;4227624;27;20062;-64
2021/12/04 10:06:31;;;;;;;6.32;5.78;;;15.70;71.00;;;;;;4166529;28;20049;-64
2021/12/04 10:17:30;;;;;;;6.82;5.70;;;17.20;65.70;;;;;;4205717;27;20072;-64
2021/12/04 10:20:02;;;;;;;8.15;6.78;;;17.50;64.40;;;;;;4202106;27;20047;-65
2021/12/04 10:22:31;;;;;;;6.70;6.10;;;17.80;63.10;;;;;;4227502;27;20051;-65
2021/12/04 10:33:13;;;;;;;6.40;5.80;;;18.10;61.50;;;;;;4202028;27;20049;-64
2021/12/04 10:35:39;;;;;;;6.65;5.72;;;18.10;61.70;;;;;;4201321;27;20460;-64
2021/12/04 10:38:05;;;;;;;5.82;5.22;;;18.10;61.70;;;;;;4207417;27;20134;-61
2021/12/04 10:40:36;;;;;;;5.75;5.25;;;18.10;61.80;;;;;;4203603;27;20059;-62
2021/12/04 10:43:01;;;;;;;;;;;18.10;61.60;;;;;;4200365;27;20392;-61
2021/12/04 10:45:32;;;;;;;6.53;6.00;;;18.10;61.70;;;;;;4207319;27;19932;-61
2021/12/04 10:47:58;;;;;;;7.82;6.40;;;18.10;61.60;;;;;;4209862;27;20127;-60
2021/12/04 10:50:28;;;;;;;6.47;5.88;;;18.00;61.60;;;;;;4214243;27;20495;-61
2021/12/04 10:52:56;;;;;;;7.88;7.07;;;18.00;61.90;;;;;;4192953;27;20055;-61
2021/12/04 10:55:23;;;;;;;7.07;6.38;;;17.80;62.20;;;;;;4198478;27;20135;-61
2021/12/04 10:58:22;;;;;;;7.65;6.90;;;17.70;62.80;;;;;;4193406;27;20052;-61
2021/12/04 11:00:52;;;;;;;8.13;7.32;;;17.60;63.40;;;;;;4218424;27;20487;-61
2021/12/04 11:03:38;;;;;;;8.23;7.43;;;17.60;63.50;;;;;;4217487;27;20052;-61
2021/12/04 11:06:29;;;;;;;6.78;6.18;;;17.60;63.50;;;;;;4209388;28;20043;-61
2021/12/04 11:22:29;;;;;;;10.60;8.95;;;17.50;64.80;;;;;;4221619;27;20044;-61
2021/12/04 11:28:10;;;;;;;9.80;8.45;;;17.60;63.90;;;;;;4230815;27;20127;-61
2021/12/04 11:38:47;;;;;;;11.60;9.90;;;17.40;64.40;;;;;;4167176;27;20052;-65
2021/12/04 11:41:26;;;;;;;11.65;9.70;;;17.30;64.90;;;;;;4211463;27;20131;-65
2021/12/04 11:44:00;;;;;;;13.00;10.20;;;17.30;65.20;;;;;;4193609;28;20154;-66
2021/12/04 11:46:29;;;;;;;12.23;10.13;;;17.30;65.40;;;;;;4208803;28;20043;-67
2021/12/04 11:48:52;;;;;;;12.63;10.35;;;17.30;65.30;;;;;;4220453;28;20081;-67
2021/12/04 11:51:18;;;;;;;15.02;10.68;;;17.30;65.30;;;;;;4219704;28;20401;-67
2021/12/04 11:53:40;;;;;;;14.65;11.32;;;17.40;65.20;;;;;;4209211;28;20044;-67
2021/12/04 11:56:04;;;;;;;14.23;11.55;;;17.40;65.00;;;;;;4209388;28;20079;-67
2021/12/04 11:58:29;;;;;;;16.13;12.00;;;17.40;64.80;;;;;;4192077;27;20395;-68
2021/12/04 12:00:54;;;;;;;16.52;11.50;;;17.40;64.80;;;;;;4192280;28;20052;-67
2021/12/04 12:03:18;;;;;;;15.00;10.65;;;17.30;65.20;;;;;;4192934;27;20646;-67
2021/12/04 12:05:45;;;;;;;15.60;10.32;;;17.40;65.60;;;;;;4193568;28;20380;-67
2021/12/04 12:08:08;;;;;;;16.55;11.60;;;17.40;65.80;;;;;;4192590;28;20052;-67
2021/12/04 12:10:30;;;;;;;19.13;12.02;;;17.40;66.00;;;;;;4197134;28;20043;-69
2021/12/04 12:12:54;;;;;;;15.85;12.13;;;17.50;65.70;;;;;;4216956;28;20055;-67
2021/12/04 12:15:28;;;;;;;16.70;12.27;;;17.70;65.40;;;;;;4207451;28;20051;-61
2021/12/04 12:17:50;;;;;;;17.13;12.55;;;17.80;64.90;;;;;;4206264;28;20159;-62
2021/12/04 12:20:26;;;;;;;18.90;12.07;;;17.80;64.70;;;;;;4206677;28;20056;-62
2021/12/04 12:22:53;;;;;;;16.83;12.00;;;17.80;64.60;;;;;;4211242;28;20051;-63
2021/12/04 12:25:24;;;;;;;15.85;11.65;;;17.70;65.00;;;;;;4206316;28;20468;-62
2021/12/04 12:33:24;;;;;;;15.73;11.38;;;17.50;65.90;;;;;;4212109;28;20479;-62
2021/12/04 12:36:04;;;;;;;17.50;11.98;;;17.40;66.40;;;;;;4210701;28;20044;-62
2021/12/04 12:38:43;;;;;;;18.15;12.32;;;17.40;66.80;;;;;;4220239;28;20055;-62
2021/12/04 12:41:11;;;;;;;16.75;12.35;;;17.40;66.80;;;;;;4206311;28;20047;-62
2021/12/04 12:43:41;;;;;;;16.77;12.13;;;17.40;67.00;;;;;;4214787;28;20100;-63
2021/12/04 12:46:04;;;;;;;15.38;11.43;;;17.40;66.90;;;;;;4212598;28;20563;-61
2021/12/04 12:48:27;;;;;;;16.15;12.55;;;17.40;67.10;;;;;;4209030;28;20499;-61
2021/12/04 12:50:49;;;;;;;16.95;12.27;;;17.40;66.90;;;;;;4210886;28;20044;-61
2021/12/04 12:53:15;;;;;;;17.65;13.55;;;17.40;67.10;;;;;;4208237;28;20044;-61
2021/12/04 12:55:38;;;;;;;17.30;12.75;;;17.30;67.20;;;;;;4210893;28;20056;-61
2021/12/04 12:58:13;;;;;;;25.20;13.95;;;17.30;67.80;;;;;;4214484;28;20051;-61
2021/12/04 13:11:41;;;;;;;14.50;11.50;;;17.60;66.80;;;;;;4225320;27;20054;-61
2021/12/04 13:14:14;;;;;;;13.57;11.25;;;17.70;66.80;;;;;;4221017;28;20055;-61
2021/12/04 13:16:37;;;;;;;15.43;11.90;;;17.70;66.70;;;;;;4225369;28;20352;-61
2021/12/04 13:19:04;;;;;;;15.48;12.15;;;17.70;66.70;;;;;;4213646;27;20051;-61
2021/12/04 13:21:27;;;;;;;14.73;12.02;;;17.80;66.30;;;;;;4210145;28;20146;-61
2021/12/04 13:23:52;;;;;;;17.08;12.65;;;17.90;66.10;;;;;;4209428;28;20548;-61
2021/12/04 13:26:18;;;;;;;15.27;12.73;;;17.90;65.90;;;;;;4214539;27;20055;-62
2021/12/04 13:28:43;;;;;;;15.60;13.18;;;17.80;66.00;;;;;;4209734;28;20509;-61
2021/12/04 13:31:11;;;;;;;15.82;13.32;;;17.80;66.20;;;;;;4218676;27;20490;-61
2021/12/04 13:33:36;;;;;;;17.05;13.88;;;17.70;66.30;;;;;;4225352;28;20039;-60
2021/12/04 13:35:59;;;;;;;17.95;13.13;;;17.60;66.70;;;;;;4215376;28;20134;-61
2021/12/04 13:38:22;;;;;;;18.35;13.98;;;17.50;67.10;;;;;;4209359;27;20047;-61
2021/12/04 13:40:49;;;;;;;19.85;14.43;;;17.40;67.60;;;;;;4220742;28;20051;-65
2021/12/04 13:43:13;;;;;;;19.42;14.95;;;17.30;68.30;;;;;;4216961;27;20560;-64
2021/12/04 13:45:35;;;;;;;19.27;14.38;;;17.30;68.70;;;;;;4213408;27;20052;-65
2021/12/04 13:47:59;;;;;;;21.02;15.23;;;17.20;68.70;;;;;;4214925;28;20047;-65
2021/12/04 13:53:13;;;;;;;23.85;16.05;;;17.10;68.70;;;;;;4217534;28;20052;-65
2021/12/04 13:55:39;;;;;;;22.83;16.20;;;17.10;68.80;;;;;;4212429;28;20482;-65
2021/12/04 13:58:03;;;;;;;25.58;16.75;;;17.00;68.90;;;;;;4213337;28;20080;-65
2021/12/04 14:00:26;;;;;;;24.58;16.55;;;16.90;69.30;;;;;;4214600;27;20205;-65
2021/12/04 14:02:48;;;;;;;27.55;17.77;;;16.90;70.00;;;;;;4210834;28;20105;-64
2021/12/04 14:05:15;;;;;;;25.27;17.45;;;16.80;70.70;;;;;;4213851;27;20590;-64
2021/12/04 14:07:37;;;;;;;25.67;16.67;;;16.90;70.60;;;;;;4209751;28;21554;-66
2021/12/04 14:09:59;;;;;;;29.42;18.25;;;17.00;70.40;;;;;;4213204;28;20051;-64
2021/12/04 14:12:21;;;;;;;24.85;16.33;;;17.00;70.00;;;;;;4213025;28;20067;-64
2021/12/04 14:14:44;;;;;;;25.73;16.63;;;17.10;69.70;;;;;;4209951;28;20040;-62
2021/12/04 14:17:09;;;;;;;25.10;15.98;;;17.10;69.60;;;;;;4213646;28;20052;-65
2021/12/04 14:19:32;;;;;;;25.65;17.17;;;17.00;69.20;;;;;;4217596;28;20360;-65
2021/12/04 14:21:59;;;;;;;28.02;17.63;;;17.00;69.40;;;;;;4219684;28;20440;-66
2021/12/04 14:24:29;;;;;;;26.60;15.60;;;17.00;69.70;;;;;;4214355;28;20048;-65
2021/12/04 14:26:53;;;;;;;29.67;17.48;;;16.90;70.10;;;;;;4210203;28;20364;-66
2021/12/04 14:29:16;;;;;;;24.60;15.98;;;16.90;70.40;;;;;;4214800;27;20529;-66
2021/12/04 14:31:38;;;;;;;27.23;16.48;;;17.00;70.40;;;;;;4216549;28;20051;-67
2021/12/04 14:34:00;;;;;;;25.20;16.30;;;17.10;70.40;;;;;;4215192;28;20047;-66
2021/12/04 14:36:22;;;;;;;23.40;16.20;;;17.10;70.10;;;;;;4214378;28;20055;-67
2021/12/04 14:38:47;;;;;;;24.92;16.88;;;17.20;69.60;;;;;;4217135;27;20047;-67
2021/12/04 14:41:09;;;;;;;20.48;14.60;;;17.30;69.30;;;;;;4212450;28;20048;-66
2021/12/04 14:43:35;;;;;;;25.63;16.42;;;17.30;69.10;;;;;;4218536;27;20043;-67
2021/12/04 14:45:59;;;;;;;25.58;15.95;;;17.30;69.30;;;;;;4209623;28;20503;-65